Time;durP1;ratioP1;P1;durP2;ratioP2;P2;SDS_P1;SDS_P2;PMS_P1;PMS_P2;Temp;Humidity;BMP_temperature;BMP_pressure;BME280_temperature;BME280_humidity;BME280_pressure;Samples;Min_cycle;Max_cycle;Signal;HPM_P1;HPM_P2
2024/01/26 00:01:23;;;;;;;42.65;11.20;;;;;;;5.02;100.00;101640.03;5015093;28;20087;-77
2024/01/26 00:03:51;;;;;;;43.63;9.95;;;;;;;5.04;100.00;101629.38;5027521;28;20025;-77
2024/01/26 00:06:16;;;;;;;61.15;13.13;;;;;;;4.95;100.00;101612.31;5028948;28;20053;-82
2024/01/26 00:08:42;;;;;;;41.90;10.20;;;;;;;4.96;100.00;101618.44;5013178;28;20095;-78
2024/01/26 00:11:14;;;;;;;37.35;10.27;;;;;;;5.12;100.00;101612.94;5029102;28;20145;-77
2024/01/26 00:13:39;;;;;;;42.75;10.82;;;;;;;4.99;100.00;101594.44;5028109;28;20809;-77
2024/01/26 00:16:05;;;;;;;37.57;9.40;;;;;;;5.11;100.00;101590.09;5018323;28;20030;-79
2024/01/26 00:18:30;;;;;;;49.70;12.05;;;;;;;5.02;100.00;101587.09;5027734;28;20862;-77
2024/01/26 00:20:55;;;;;;;38.30;9.53;;;;;;;5.05;100.00;101584.25;5031765;28;20041;-77
2024/01/26 00:23:21;;;;;;;33.87;8.63;;;;;;;5.06;100.00;101570.06;5032441;28;20067;-82
2024/01/26 00:25:46;;;;;;;43.23;9.83;;;;;;;5.07;100.00;101566.47;5030644;28;20060;-82
2024/01/26 00:28:11;;;;;;;48.60;10.93;;;;;;;5.27;100.00;101570.38;5025708;28;20375;-78
2024/01/26 00:30:37;;;;;;;51.00;9.90;;;;;;;5.21;100.00;101559.38;5015234;28;20037;-81
2024/01/26 00:33:02;;;;;;;41.13;8.77;;;;;;;5.25;100.00;101553.75;5031604;28;20029;-79
2024/01/26 00:35:28;;;;;;;38.10;10.00;;;;;;;5.24;100.00;101528.25;5012643;28;20026;-77
2024/01/26 00:37:54;;;;;;;46.60;9.95;;;;;;;5.18;100.00;101517.22;5031757;28;20087;-78
2024/01/26 00:40:20;;;;;;;42.13;9.32;;;;;;;5.14;100.00;101527.19;5032092;28;20040;-77
2024/01/26 00:42:46;;;;;;;52.95;10.27;;;;;;;5.15;100.00;101514.78;5029572;28;20519;-79
2024/01/26 00:45:11;;;;;;;41.47;10.90;;;;;;;5.37;100.00;101530.84;5031773;28;20065;-80
2024/01/26 00:47:37;;;;;;;34.00;10.88;;;;;;;5.37;100.00;101522.91;5014813;28;20064;-77
2024/01/26 00:50:04;;;;;;;44.40;9.85;;;;;;;5.32;100.00;101497.72;5015676;28;20103;-80
2024/01/26 00:52:29;;;;;;;41.55;10.65;;;;;;;5.32;100.00;101489.78;5015172;28;20051;-77
2024/01/26 00:54:54;;;;;;;48.92;10.77;;;;;;;5.25;100.00;101490.19;5014487;28;20033;-79
2024/01/26 00:57:20;;;;;;;34.73;9.23;;;;;;;5.07;100.00;101492.34;5011525;28;20103;-77
2024/01/26 00:59:45;;;;;;;37.17;10.90;;;;;;;5.17;100.00;101515.53;5026130;28;20288;-77
2024/01/26 01:02:11;;;;;;;38.30;11.07;;;;;;;5.18;100.00;101530.47;5004991;28;20453;-76
2024/01/26 01:04:36;;;;;;;81.77;14.03;;;;;;;5.39;100.00;101522.81;5006109;28;20045;-76
2024/01/26 01:07:03;;;;;;;38.87;10.80;;;;;;;5.41;100.00;101502.34;5009835;28;20543;-77
2024/01/26 01:09:28;;;;;;;34.28;11.85;;;;;;;5.37;100.00;101485.81;5024377;28;20324;-77
2024/01/26 01:11:54;;;;;;;41.30;9.80;;;;;;;5.20;100.00;101483.56;5019892;28;20060;-77
2024/01/26 01:14:19;;;;;;;55.83;11.60;;;;;;;5.14;100.00;101479.53;5019983;28;20489;-77
2024/01/26 01:16:45;;;;;;;42.77;11.90;;;;;;;5.16;100.00;101503.25;5014931;28;20128;-77
2024/01/26 01:19:11;;;;;;;46.20;10.23;;;;;;;5.06;100.00;101482.72;5018505;28;20052;-78
2024/01/26 01:21:36;;;;;;;35.58;11.93;;;;;;;5.32;100.00;101519.75;5012331;28;21441;-79
2024/01/26 01:24:02;;;;;;;34.63;10.07;;;;;;;5.20;100.00;101489.69;5019132;28;20033;-77
2024/01/26 01:26:27;;;;;;;56.28;13.30;;;;;;;5.20;100.00;101495.00;5024134;28;20038;-77
2024/01/26 01:28:53;;;;;;;50.17;10.35;;;;;;;5.24;100.00;101499.13;5025645;28;20044;-77
2024/01/26 01:31:19;;;;;;;55.30;11.90;;;;;;;5.25;100.00;101492.00;5028464;28;20240;-77
2024/01/26 01:33:44;;;;;;;39.28;11.43;;;;;;;5.30;100.00;101489.88;5026525;28;20033;-77
2024/01/26 01:36:10;;;;;;;45.80;13.40;;;;;;;5.35;100.00;101490.38;5026570;28;20037;-77
2024/01/26 01:38:35;;;;;;;40.03;10.50;;;;;;;5.45;100.00;101487.91;5025295;28;20363;-77
2024/01/26 01:41:02;;;;;;;75.47;13.75;;;;;;;5.08;100.00;101445.56;4994206;28;20032;-78
2024/01/26 01:43:28;;;;;;;38.83;12.32;;;;;;;5.26;100.00;101478.66;5019687;28;20030;-77
2024/01/26 01:45:53;;;;;;;50.83;13.88;;;;;;;5.32;100.00;101472.09;5008776;28;20030;-77
2024/01/26 01:48:20;;;;;;;53.13;14.65;;;;;;;5.39;100.00;101472.50;5026419;28;20092;-77
2024/01/26 01:50:45;;;;;;;;;;;;;;;5.34;100.00;101458.72;5026771;28;20535;-79
2024/01/26 01:53:12;;;;;;;47.50;12.75;;;;;;;5.13;100.00;101442.56;5015705;28;19919;-78
2024/01/26 01:55:40;;;;;;;44.10;12.52;;;;;;;4.96;100.00;101444.63;5013050;28;20033;-78
2024/01/26 01:58:07;;;;;;;47.83;11.68;;;;;;;4.96;100.00;101475.53;5004138;28;20260;-78
2024/01/26 02:00:32;;;;;;;;;;;;;;;4.91;100.00;101489.09;5010214;28;20037;-77
2024/01/26 02:02:58;;;;;;;48.13;11.00;;;;;;;5.01;100.00;101506.03;5010336;28;19928;-77
2024/01/26 02:05:23;;;;;;;42.05;11.13;;;;;;;4.85;100.00;101494.81;5008419;28;20124;-78
2024/01/26 02:07:49;;;;;;;51.58;11.57;;;;;;;4.99;100.00;101509.75;5027584;28;20420;-77
2024/01/26 02:10:15;;;;;;;;;;;;;;;5.06;100.00;101525.06;5027313;28;20064;-78
2024/01/26 02:12:40;;;;;;;54.08;12.73;;;;;;;4.98;100.00;101514.16;5027544;28;20035;-77
2024/01/26 02:15:08;;;;;;;52.90;13.77;;;;;;;5.21;100.00;101530.25;5026798;28;20631;-78
2024/01/26 02:17:34;;;;;;;43.50;12.60;;;;;;;5.26;100.00;101520.16;5009911;28;20830;-77
2024/01/26 02:20:00;;;;;;;54.65;12.80;;;;;;;5.27;100.00;101500.69;5027820;28;20485;-77
2024/01/26 02:22:26;;;;;;;55.92;11.80;;;;;;;5.21;100.00;101482.59;5010193;28;20039;-77
2024/01/26 02:24:51;;;;;;;47.60;10.45;;;;;;;5.27;100.00;101482.16;5026126;28;20041;-78
2024/01/26 02:27:18;;;;;;;45.25;11.25;;;;;;;5.35;100.00;101485.09;5010108;28;20025;-77
2024/01/26 02:29:43;;;;;;;44.28;12.15;;;;;;;5.48;100.00;101482.41;5026140;28;20042;-78
2024/01/26 02:32:09;;;;;;;52.80;13.52;;;;;;;5.40;100.00;101482.09;5027514;28;20052;-77
2024/01/26 02:34:34;;;;;;;46.70;10.27;;;;;;;5.40;100.00;101475.00;5001992;28;20044;-77
2024/01/26 02:37:00;;;;;;;50.43;13.80;;;;;;;5.39;100.00;101467.19;5026343;28;20355;-77
2024/01/26 02:39:25;;;;;;;53.22;11.70;;;;;;;5.48;100.00;101459.41;5009483;28;20962;-77
2024/01/26 02:41:51;;;;;;;46.90;12.10;;;;;;;5.42;100.00;101456.38;5010018;28;20072;-78
2024/01/26 02:44:16;;;;;;;63.00;16.70;;;;;;;5.49;100.00;101484.94;5023896;28;20042;-77
2024/01/26 02:46:45;;;;;;;59.27;14.77;;;;;;;5.38;100.00;101479.56;5025764;28;20296;-78
2024/01/26 02:49:10;;;;;;;47.58;15.85;;;;;;;5.39;100.00;101499.81;5022999;28;20583;-78
2024/01/26 02:51:36;;;;;;;56.77;15.50;;;;;;;5.40;100.00;101501.47;5014199;28;20056;-77
2024/01/26 02:54:01;;;;;;;71.47;14.00;;;;;;;5.43;100.00;101526.91;5009829;28;20038;-78
2024/01/26 02:56:26;;;;;;;56.97;16.10;;;;;;;5.43;100.00;101521.59;5026355;28;20041;-78
2024/01/26 02:58:52;;;;;;;60.00;14.73;;;;;;;5.66;100.00;101533.19;5025747;28;20049;-78
2024/01/26 03:01:17;;;;;;;48.70;15.10;;;;;;;5.37;100.00;101501.72;5026602;28;20040;-77
2024/01/26 03:03:42;;;;;;;42.37;14.30;;;;;;;5.43;100.00;101518.94;5023316;28;20296;-78
2024/01/26 03:06:11;;;;;;;57.07;15.00;;;;;;;5.34;100.00;101512.53;5009874;28;20033;-77
2024/01/26 03:08:37;;;;;;;51.55;15.88;;;;;;;5.39;100.00;101510.41;5022618;28;20292;-77
2024/01/26 03:11:03;;;;;;;47.78;12.98;;;;;;;5.60;100.00;101507.16;5008813;28;20083;-78
2024/01/26 03:13:28;;;;;;;46.53;14.18;;;;;;;5.56;100.00;101497.75;5009586;28;20037;-78
2024/01/26 03:15:53;;;;;;;44.47;12.77;;;;;;;5.56;100.00;101503.88;5009274;28;20480;-78
2024/01/26 03:18:19;;;;;;;62.13;14.53;;;;;;;5.58;100.00;101494.03;5009083;28;20077;-77
2024/01/26 03:20:45;;;;;;;59.90;16.47;;;;;;;5.45;100.00;101478.16;5023084;28;20428;-77
2024/01/26 03:23:10;;;;;;;51.60;14.80;;;;;;;5.33;100.00;101487.00;5027300;28;20059;-78
2024/01/26 03:25:36;;;;;;;63.63;15.45;;;;;;;5.42;100.00;101514.63;5009167;28;20512;-78
2024/01/26 03:28:01;;;;;;;54.75;14.55;;;;;;;5.40;100.00;101511.25;5022124;28;20731;-77
2024/01/26 03:30:27;;;;;;;56.38;17.45;;;;;;;5.50;100.00;101513.13;5020445;28;20511;-78
2024/01/26 03:32:52;;;;;;;62.42;16.27;;;;;;;5.41;100.00;101508.50;5009452;28;20085;-77
2024/01/26 03:35:18;;;;;;;56.13;17.10;;;;;;;5.21;100.00;101501.13;5026994;28;20046;-77
2024/01/26 03:37:44;;;;;;;55.92;16.92;;;;;;;5.39;100.00;101531.59;4996400;28;20104;-77
2024/01/26 03:40:09;;;;;;;71.30;19.45;;;;;;;5.18;100.00;101509.28;5026416;28;20042;-78
2024/01/26 03:42:35;;;;;;;70.22;17.55;;;;;;;5.27;100.00;101521.88;5023054;28;20033;-78
2024/01/26 03:45:00;;;;;;;62.23;17.43;;;;;;;5.12;100.00;101507.91;5009896;28;20034;-77
2024/01/26 03:47:25;;;;;;;66.27;19.40;;;;;;;5.30;100.00;101521.66;5018238;28;20148;-78
2024/01/26 03:49:51;;;;;;;81.37;18.50;;;;;;;5.18;100.00;101501.34;5027241;28;20375;-78
2024/01/26 03:52:16;;;;;;;73.07;19.07;;;;;;;5.11;100.00;101508.88;5029346;28;20480;-78
2024/01/26 03:54:41;;;;;;;67.73;18.37;;;;;;;5.00;100.00;101488.44;5025858;28;20784;-78
2024/01/26 03:57:07;;;;;;;62.87;20.00;;;;;;;5.15;100.00;101489.19;5026925;28;20386;-77
2024/01/26 03:59:32;;;;;;;66.32;20.20;;;;;;;5.24;100.00;101506.19;5013022;28;20112;-77
2024/01/26 04:01:57;;;;;;;78.80;18.77;;;;;;;5.32;100.00;101493.25;5003367;28;20044;-77
2024/01/26 04:04:23;;;;;;;61.43;17.23;;;;;;;5.31;100.00;101490.72;5011781;28;20029;-77
2024/01/26 04:06:48;;;;;;;67.07;18.27;;;;;;;5.29;100.00;101488.16;5004483;28;20370;-77
2024/01/26 04:09:14;;;;;;;68.85;17.23;;;;;;;5.33;100.00;101488.81;5012388;28;20022;-77
2024/01/26 04:11:39;;;;;;;72.77;21.40;;;;;;;5.06;100.00;101466.00;5030174;28;20112;-78
2024/01/26 04:14:05;;;;;;;72.45;20.08;;;;;;;5.10;100.00;101466.63;5027045;28;20026;-77
2024/01/26 04:16:31;;;;;;;87.47;21.77;;;;;;;5.18;100.00;101474.88;5025093;28;20029;-77
2024/01/26 04:18:56;;;;;;;75.05;20.42;;;;;;;5.32;100.00;101466.78;5028749;28;20055;-78
2024/01/26 04:21:21;;;;;;;84.40;22.07;;;;;;;5.18;100.00;101448.41;5012147;28;20041;-78
2024/01/26 04:23:47;;;;;;;89.37;23.10;;;;;;;5.05;100.00;101457.19;5012280;28;20282;-77
2024/01/26 04:26:12;;;;;;;81.17;21.47;;;;;;;5.30;100.00;101463.41;5011872;28;20042;-77
2024/01/26 04:28:37;;;;;;;74.57;21.73;;;;;;;5.24;100.00;101464.69;5012036;28;20033;-77
2024/01/26 04:31:06;;;;;;;85.78;23.83;;;;;;;5.12;100.00;101439.09;5011743;28;20044;-77
2024/01/26 04:33:32;;;;;;;94.28;26.13;;;;;;;5.27;100.00;101450.38;5028226;28;20036;-76
2024/01/26 04:35:57;;;;;;;83.47;23.23;;;;;;;5.31;100.00;101453.66;5027779;28;20022;-77
2024/01/26 04:38:23;;;;;;;77.60;21.33;;;;;;;5.37;100.00;101454.06;5011985;28;20276;-78
2024/01/26 04:40:48;;;;;;;85.72;24.77;;;;;;;5.24;100.00;101438.22;5028333;28;20507;-77
2024/01/26 04:43:14;;;;;;;73.95;20.95;;;;;;;5.35;100.00;101440.06;5011753;28;20044;-77
2024/01/26 04:45:39;;;;;;;72.20;22.50;;;;;;;5.36;100.00;101428.53;5024505;28;20664;-78
2024/01/26 04:48:05;;;;;;;67.67;21.43;;;;;;;5.50;100.00;101427.50;5010843;28;20026;-77
2024/01/26 04:50:30;;;;;;;94.28;24.02;;;;;;;5.49;100.00;101415.22;5024996;28;20772;-78
2024/01/26 04:52:56;;;;;;;83.93;22.30;;;;;;;5.37;100.00;101405.53;5012171;28;20133;-78
2024/01/26 04:55:23;;;;;;;83.88;22.13;;;;;;;5.44;100.00;101412.09;5024295;28;20758;-78
2024/01/26 04:57:49;;;;;;;79.35;22.60;;;;;;;5.39;100.00;101404.47;5011351;28;20056;-77
2024/01/26 05:00:15;;;;;;;84.72;23.98;;;;;;;5.38;100.00;101401.94;5011573;28;20548;-77
2024/01/26 05:02:41;;;;;;;83.43;23.63;;;;;;;5.44;100.00;101399.69;5027610;28;20049;-77
2024/01/26 05:05:06;;;;;;;90.18;24.17;;;;;;;5.41;100.00;101384.03;5027330;28;20055;-78
2024/01/26 05:07:31;;;;;;;76.60;23.07;;;;;;;5.42;100.00;101382.22;5022610;28;20071;-77
2024/01/26 05:09:57;;;;;;;80.83;23.17;;;;;;;5.49;100.00;101376.34;5028848;28;20516;-77
2024/01/26 05:12:22;;;;;;;102.37;22.83;;;;;;;5.40;100.00;101368.25;5024296;28;20087;-77
2024/01/26 05:14:48;;;;;;;80.97;26.60;;;;;;;5.31;100.00;101350.38;5008369;28;20287;-77
2024/01/26 05:17:13;;;;;;;82.87;26.00;;;;;;;5.44;100.00;101343.22;5025539;28;20042;-78
2024/01/26 05:19:38;;;;;;;87.73;23.20;;;;;;;5.43;100.00;101329.16;5030505;28;20276;-76
2024/01/26 05:22:04;;;;;;;93.43;25.27;;;;;;;5.42;100.00;101326.59;5002177;28;20049;-77
2024/01/26 05:24:29;;;;;;;104.60;27.60;;;;;;;5.32;100.00;101318.50;5030606;28;20037;-77
2024/01/26 05:26:55;;;;;;;103.23;25.97;;;;;;;5.42;100.00;101321.31;5027384;28;20492;-77
2024/01/26 05:29:20;;;;;;;99.25;26.35;;;;;;;5.25;100.00;101301.38;5005988;28;20029;-77
2024/01/26 05:31:46;;;;;;;91.22;27.70;;;;;;;5.39;100.00;101310.94;5021214;28;20753;-76
2024/01/26 05:34:11;;;;;;;102.70;26.55;;;;;;;5.32;100.00;101301.78;5030765;28;20040;-77
2024/01/26 05:36:43;;;;;;;78.80;27.10;;;;;;;5.21;100.00;101310.50;5013133;28;20033;-78
2024/01/26 05:39:10;;;;;;;80.22;24.83;;;;;;;5.39;100.00;101308.31;5012373;28;20280;-77
2024/01/26 05:41:35;;;;;;;109.00;28.08;;;;;;;5.29;100.00;101289.59;5023776;28;20018;-78
2024/01/26 05:44:01;;;;;;;115.30;31.25;;;;;;;5.38;100.00;101291.56;5008849;28;20121;-77
2024/01/26 05:46:26;;;;;;;91.88;26.17;;;;;;;5.28;100.00;101274.69;5006214;28;20045;-77
2024/01/26 05:48:52;;;;;;;110.07;29.13;;;;;;;5.38;100.00;101280.94;4995668;28;20040;-77
2024/01/26 05:51:18;;;;;;;104.57;28.10;;;;;;;5.39;100.00;101273.88;5028012;28;20472;-77
2024/01/26 05:53:43;;;;;;;99.30;27.50;;;;;;;5.48;100.00;101291.72;5013110;28;20130;-77
2024/01/26 05:56:08;;;;;;;82.03;25.27;;;;;;;5.59;100.00;101282.94;5026964;28;20338;-78
2024/01/26 05:58:34;;;;;;;97.07;28.17;;;;;;;5.60;100.00;101266.94;5013579;28;20041;-77
2024/01/26 06:00:59;;;;;;;85.78;25.30;;;;;;;5.57;100.00;101253.94;5026469;28;20041;-78
2024/01/26 06:03:24;;;;;;;75.73;24.87;;;;;;;5.47;100.00;101239.69;5006088;28;20034;-79
2024/01/26 06:05:50;;;;;;;78.83;25.83;;;;;;;5.43;100.00;101241.75;5023176;28;20115;-78
2024/01/26 06:08:15;;;;;;;78.73;26.30;;;;;;;5.46;100.00;101230.91;5019868;28;20492;-76
2024/01/26 06:10:40;;;;;;;85.80;24.10;;;;;;;5.51;100.00;101222.63;5008977;28;20412;-76
2024/01/26 06:13:06;;;;;;;69.03;25.00;;;;;;;5.64;100.00;101228.66;5026928;28;20293;-76
2024/01/26 06:15:31;;;;;;;67.80;22.77;;;;;;;5.73;100.00;101221.78;5019167;28;20026;-76
2024/01/26 06:17:56;;;;;;;72.73;22.00;;;;;;;5.68;100.00;101208.91;5006890;28;20030;-79
2024/01/26 06:20:22;;;;;;;63.72;22.65;;;;;;;5.73;100.00;101208.53;5005202;28;20386;-77
2024/01/26 06:22:47;;;;;;;73.20;24.08;;;;;;;5.79;100.00;101209.88;5011456;28;20042;-77
2024/01/26 06:25:13;;;;;;;74.40;23.73;;;;;;;5.80;100.00;101204.44;5008587;28;20033;-78
2024/01/26 06:27:38;;;;;;;77.30;23.07;;;;;;;5.84;100.00;101200.59;5025195;28;20018;-78
2024/01/26 06:30:04;;;;;;;78.03;26.03;;;;;;;5.90;100.00;101200.13;5006130;28;20488;-76
2024/01/26 06:32:29;;;;;;;76.53;23.98;;;;;;;5.81;100.00;101192.91;5014017;28;20280;-78
2024/01/26 06:34:55;;;;;;;65.97;24.23;;;;;;;5.85;100.00;101194.34;5023088;28;20042;-78
2024/01/26 06:37:21;;;;;;;76.50;23.17;;;;;;;5.91;100.00;101174.47;5009047;28;20032;-78
2024/01/26 06:39:46;;;;;;;62.65;21.45;;;;;;;5.88;100.00;101162.31;5008036;28;20284;-75
2024/01/26 06:42:12;;;;;;;80.13;25.63;;;;;;;5.83;100.00;101168.91;5008553;28;20384;-78
2024/01/26 06:44:37;;;;;;;69.68;22.27;;;;;;;5.88;100.00;101187.97;5026030;28;20038;-77
2024/01/26 06:47:03;;;;;;;77.00;24.92;;;;;;;5.92;100.00;101174.34;5022992;28;20056;-78
2024/01/26 06:49:28;;;;;;;90.75;27.80;;;;;;;6.06;100.00;101156.53;5005990;28;20022;-78
2024/01/26 06:51:54;;;;;;;95.17;24.77;;;;;;;5.85;100.00;101138.72;5014848;28;20025;-76
2024/01/26 06:54:19;;;;;;;76.03;23.17;;;;;;;5.96;100.00;101142.31;5025504;28;20742;-77
2024/01/26 06:56:44;;;;;;;78.00;27.47;;;;;;;5.88;100.00;101130.50;5024274;28;20746;-78
2024/01/26 06:59:10;;;;;;;81.80;25.00;;;;;;;6.01;100.00;101140.16;5027298;28;20717;-78
2024/01/26 07:01:35;;;;;;;68.57;25.07;;;;;;;6.09;100.00;101127.97;5026026;28;20029;-78
2024/01/26 07:04:00;;;;;;;84.83;23.80;;;;;;;6.03;100.00;101111.72;5025853;28;20131;-78
2024/01/26 07:06:26;;;;;;;71.00;24.03;;;;;;;6.04;100.00;101111.59;5027086;28;20264;-78
2024/01/26 07:08:51;;;;;;;71.67;24.90;;;;;;;6.15;100.00;101115.19;5009725;28;20071;-77
2024/01/26 07:11:18;;;;;;;62.97;21.57;;;;;;;6.25;100.00;101101.06;5029989;28;20056;-78
2024/01/26 07:13:43;;;;;;;79.05;25.35;;;;;;;6.15;100.00;101091.31;5026858;28;20499;-77
2024/01/26 07:16:09;;;;;;;73.90;26.30;;;;;;;6.13;100.00;101075.53;5026684;28;20033;-78
2024/01/26 07:18:34;;;;;;;76.82;25.73;;;;;;;6.10;100.00;101071.31;5024334;28;20030;-78
2024/01/26 07:21:08;;;;;;;88.63;25.63;;;;;;;5.99;100.00;101039.53;5013636;28;20037;-78
2024/01/26 07:23:34;;;;;;;70.28;25.15;;;;;;;6.17;100.00;101052.28;5009414;28;20288;-77
2024/01/26 07:26:00;;;;;;;82.93;26.60;;;;;;;6.21;100.00;101057.19;5027140;28;20484;-77
2024/01/26 07:28:27;;;;;;;67.70;23.42;;;;;;;6.37;100.00;101053.25;5030602;28;20029;-78
2024/01/26 07:30:52;;;;;;;83.72;27.77;;;;;;;6.38;100.00;101054.94;5028752;28;20269;-78
2024/01/26 07:33:17;;;;;;;78.47;26.13;;;;;;;6.37;100.00;101038.22;5019399;28;20095;-77
2024/01/26 07:35:43;;;;;;;70.37;22.67;;;;;;;6.40;100.00;101035.28;5029715;28;20392;-78
2024/01/26 07:38:09;;;;;;;67.97;26.03;;;;;;;6.43;100.00;101034.19;5030623;28;20044;-78
2024/01/26 07:40:34;;;;;;;80.63;26.30;;;;;;;6.55;100.00;101027.84;5029159;28;20033;-77
2024/01/26 07:42:59;;;;;;;73.20;23.13;;;;;;;6.40;100.00;101023.84;5029087;28;20021;-77
2024/01/26 07:45:25;;;;;;;67.77;24.57;;;;;;;6.34;100.00;101015.44;5026020;28;20049;-78
2024/01/26 07:47:52;;;;;;;73.30;23.38;;;;;;;6.40;100.00;101008.75;5027753;28;20037;-78
2024/01/26 07:50:20;;;;;;;82.30;24.30;;;;;;;6.42;100.00;101006.00;5028526;28;20428;-78
2024/01/26 07:52:46;;;;;;;85.00;25.20;;;;;;;6.44;100.00;100994.28;5012569;28;20042;-78
2024/01/26 07:55:11;;;;;;;86.67;25.10;;;;;;;6.39;100.00;101000.94;5029567;28;20044;-80
2024/01/26 07:57:37;;;;;;;89.47;26.80;;;;;;;6.43;100.00;100997.88;5029910;28;20025;-77
2024/01/26 08:00:04;;;;;;;;;;;;;;;6.48;100.00;100994.84;5029220;28;20280;-79
2024/01/26 08:02:30;;;;;;;75.50;27.30;;;;;;;6.54;100.00;100989.03;5029270;28;20627;-77
2024/01/26 08:04:56;;;;;;;82.85;27.23;;;;;;;6.48;100.00;100973.63;5019512;28;20116;-78
2024/01/26 08:07:21;;;;;;;85.47;26.85;;;;;;;6.48;100.00;100963.84;5024424;28;20075;-78
2024/01/26 08:09:46;;;;;;;76.03;26.43;;;;;;;6.59;100.00;100970.06;5030998;28;20526;-78
2024/01/26 08:12:12;;;;;;;82.17;25.73;;;;;;;6.71;100.00;100961.06;5025722;28;20036;-78
2024/01/26 08:14:37;;;;;;;89.87;27.13;;;;;;;6.63;100.00;100945.81;5005802;28;20072;-78
2024/01/26 08:17:03;;;;;;;69.03;23.20;;;;;;;6.67;100.00;100930.44;5018636;28;20115;-78
2024/01/26 08:19:28;;;;;;;88.38;27.70;;;;;;;6.82;100.00;100944.22;5010161;28;20064;-78
2024/01/26 08:21:53;;;;;;;90.43;26.67;;;;;;;6.81;100.00;100929.25;5010888;28;20049;-78
2024/01/26 08:24:19;;;;;;;100.23;33.77;;;;;;;6.61;100.00;100913.25;5008396;28;20091;-79
2024/01/26 08:26:44;;;;;;;87.63;30.67;;;;;;;6.61;100.00;100909.78;5012724;28;20041;-78
2024/01/26 08:29:09;;;;;;;100.30;30.43;;;;;;;6.59;100.00;100893.97;5029019;28;20041;-79
2024/01/26 08:31:35;;;;;;;96.20;29.60;;;;;;;6.73;100.00;100896.25;5012781;28;20041;-77
2024/01/26 08:34:00;;;;;;;99.33;31.30;;;;;;;6.78;100.00;100879.94;5021118;28;20781;-78
2024/01/26 08:36:25;;;;;;;98.43;32.30;;;;;;;6.79;100.00;100886.09;5030498;28;20112;-79
2024/01/26 08:38:54;;;;;;;92.43;28.43;;;;;;;6.76;100.00;100874.75;5025851;28;20034;-78
2024/01/26 08:41:20;;;;;;;97.63;31.17;;;;;;;6.81;100.00;100878.84;5029031;28;20037;-79
2024/01/26 08:43:45;;;;;;;88.85;30.88;;;;;;;6.71;100.00;100853.09;5028848;28;20048;-79
2024/01/26 08:46:10;;;;;;;107.47;33.07;;;;;;;6.84;100.00;100873.28;5012472;28;20045;-79
2024/01/26 08:48:36;;;;;;;95.13;33.50;;;;;;;6.64;100.00;100862.56;5025657;28;20126;-80
2024/01/26 08:51:02;;;;;;;100.77;31.93;;;;;;;6.83;100.00;100866.28;5018856;28;20061;-77
2024/01/26 08:53:27;;;;;;;94.97;29.88;;;;;;;6.89;100.00;100858.63;5029521;28;20033;-77
2024/01/26 08:55:53;;;;;;;94.65;30.52;;;;;;;7.00;100.00;100848.84;5013238;28;20045;-78
2024/01/26 08:58:18;;;;;;;83.47;29.37;;;;;;;6.92;100.00;100850.38;5014336;28;20120;-78
2024/01/26 09:00:45;;;;;;;74.27;27.50;;;;;;;6.95;100.00;100849.25;5030539;28;20476;-78
2024/01/26 09:03:10;;;;;;;78.20;26.95;;;;;;;6.97;100.00;100847.31;5022847;28;20040;-76
2024/01/26 09:05:35;;;;;;;61.55;23.30;;;;;;;7.04;100.00;100848.44;5027989;28;20441;-76
2024/01/26 09:08:03;;;;;;;64.83;24.93;;;;;;;6.92;100.00;100837.09;5016492;28;20045;-77
2024/01/26 09:10:29;;;;;;;65.65;22.33;;;;;;;7.05;100.00;100828.88;5022267;28;20124;-78
2024/01/26 09:12:54;;;;;;;55.70;22.23;;;;;;;7.11;100.00;100814.22;5030054;28;20064;-77
2024/01/26 09:15:19;;;;;;;49.83;18.67;;;;;;;7.11;100.00;100801.78;5028752;28;20048;-78
2024/01/26 09:17:45;;;;;;;53.57;21.97;;;;;;;7.06;100.00;100800.53;5025301;28;20075;-79
2024/01/26 09:20:10;;;;;;;45.73;17.67;;;;;;;7.12;100.00;100782.22;5027580;28;20033;-79
2024/01/26 09:22:36;;;;;;;41.80;17.50;;;;;;;7.20;100.00;100781.53;5024347;28;20034;-80
2024/01/26 09:25:01;;;;;;;46.33;16.10;;;;;;;7.25;100.00;100771.31;5029915;28;20500;-80
2024/01/26 09:27:27;;;;;;;37.23;14.73;;;;;;;7.26;100.00;100756.22;5028103;28;20121;-78
2024/01/26 09:29:53;;;;;;;;;;;;;;;7.17;100.00;100755.25;5013086;28;20026;-78
2024/01/26 09:32:18;;;;;;;33.67;15.35;;;;;;;7.34;100.00;100753.69;5013696;28;19935;-78
2024/01/26 09:34:44;;;;;;;33.27;13.83;;;;;;;7.40;100.00;100740.69;5028300;28;20040;-78
2024/01/26 09:37:10;;;;;;;35.42;14.40;;;;;;;7.30;100.00;100737.19;5025782;28;20029;-78
2024/01/26 09:39:35;;;;;;;33.70;14.60;;;;;;;7.25;100.00;100744.75;5023243;28;20021;-78
2024/01/26 09:42:00;;;;;;;38.33;13.93;;;;;;;7.42;100.00;100737.88;5020725;28;20133;-78
2024/01/26 09:44:26;;;;;;;33.78;14.02;;;;;;;7.40;100.00;100745.19;5009063;28;20037;-77
2024/01/26 09:46:51;;;;;;;35.77;15.43;;;;;;;7.57;100.00;100739.13;5026269;28;20384;-78
2024/01/26 09:49:17;;;;;;;31.67;14.48;;;;;;;7.58;100.00;100740.78;5025535;28;20044;-77
2024/01/26 09:51:43;;;;;;;30.20;14.23;;;;;;;7.68;100.00;100726.63;4993460;28;20111;-78
2024/01/26 09:54:11;;;;;;;27.35;11.88;;;;;;;7.77;100.00;100717.81;5007372;28;20500;-78
2024/01/26 09:56:38;;;;;;;28.00;12.90;;;;;;;7.92;100.00;100719.03;5006541;28;20029;-79
2024/01/26 09:59:05;;;;;;;26.92;13.00;;;;;;;7.88;100.00;100688.38;5025324;28;20117;-80
2024/01/26 10:01:32;;;;;;;28.65;13.82;;;;;;;7.94;100.00;100698.44;5009973;28;20498;-79
2024/01/26 10:03:58;;;;;;;31.48;14.57;;;;;;;7.92;100.00;100696.94;5009931;28;20404;-80
2024/01/26 10:06:24;;;;;;;32.60;14.32;;;;;;;8.02;100.00;100698.53;5027856;28;20017;-80
2024/01/26 10:08:49;;;;;;;28.23;14.03;;;;;;;8.11;100.00;100685.38;5027088;28;20095;-78
2024/01/26 10:11:14;;;;;;;31.13;13.05;;;;;;;8.18;100.00;100676.63;5019730;28;20033;-80
2024/01/26 10:13:40;;;;;;;29.80;14.47;;;;;;;8.15;100.00;100681.44;5027297;28;20041;-79
2024/01/26 10:16:07;;;;;;;35.67;15.17;;;;;;;8.21;100.00;100675.50;5011326;28;20071;-79
2024/01/26 10:18:43;;;;;;;34.20;14.43;;;;;;;8.17;100.00;100663.47;5025679;28;20048;-80
2024/01/26 10:21:13;;;;;;;30.58;14.13;;;;;;;8.23;100.00;100669.03;5008398;28;20099;-80
2024/01/26 10:23:39;;;;;;;32.85;15.55;;;;;;;8.37;100.00;100667.69;5009240;28;20469;-80
2024/01/26 10:26:05;;;;;;;28.63;14.77;;;;;;;8.29;100.00;100662.31;5026259;28;20060;-80
2024/01/26 10:28:31;;;;;;;33.83;15.73;;;;;;;8.45;100.00;100658.97;5016819;28;20092;-79
2024/01/26 10:30:56;;;;;;;29.27;14.98;;;;;;;8.48;100.00;100636.59;5009992;28;20109;-80
2024/01/26 10:33:23;;;;;;;26.53;13.57;;;;;;;8.52;100.00;100653.91;5018381;28;20039;-79
2024/01/26 10:35:51;;;;;;;27.58;12.63;;;;;;;8.50;100.00;100645.22;5010128;28;20038;-81
2024/01/26 10:38:17;;;;;;;26.58;12.73;;;;;;;8.59;100.00;100631.88;5021733;28;20033;-79
2024/01/26 10:40:45;;;;;;;20.00;10.20;;;;;;;8.59;100.00;100639.00;5026622;28;20040;-79
2024/01/26 10:43:12;;;;;;;19.05;9.73;;;;;;;8.63;100.00;100619.09;5007376;28;20474;-80
2024/01/26 10:45:38;;;;;;;19.10;9.50;;;;;;;8.68;100.00;100618.63;5007260;28;20053;-81
2024/01/26 10:48:07;;;;;;;;;;;;;;;8.87;100.00;100627.28;5030908;28;20037;-79
2024/01/26 10:50:35;;;;;;;15.73;7.53;;;;;;;8.83;100.00;100612.59;5027152;28;19913;-81
2024/01/26 10:53:03;;;;;;;16.70;7.90;;;;;;;8.91;100.00;100600.34;5002957;28;20052;-80
2024/01/26 10:55:29;;;;;;;17.83;8.63;;;;;;;8.91;100.00;100595.03;5005549;28;20040;-79
2024/01/26 10:57:54;;;;;;;12.88;6.93;;;;;;;8.81;100.00;100592.47;5027313;28;20437;-80
2024/01/26 11:00:20;;;;;;;17.40;9.47;;;;;;;8.87;100.00;100594.47;5027209;28;20111;-81
2024/01/26 11:02:46;;;;;;;13.30;7.32;;;;;;;8.80;100.00;100567.66;5009544;28;20276;-80
2024/01/26 11:05:11;;;;;;;14.18;7.38;;;;;;;8.90;100.00;100574.69;5030075;28;20060;-81